Time;durP1;ratioP1;P1;durP2;ratioP2;P2;SDS_P1;SDS_P2;PMS_P1;PMS_P2;Temp;Humidity;BMP_temperature;BMP_pressure;BME280_temperature;BME280_humidity;BME280_pressure;Samples;Min_cycle;Max_cycle;Signal;HPM_P1;HPM_P2
2022/08/20 00:01:16;;;;;;;1.67;0.93;;;;;;;30.85;32.42;94679.72;5049106;28;20196;-63
2022/08/20 00:03:43;;;;;;;0.47;0.47;;;;;;;30.78;32.58;94689.72;5048835;28;20192;-63
2022/08/20 00:06:21;;;;;;;0.47;0.47;;;;;;;30.79;32.44;94694.75;5058259;28;20211;-63
2022/08/20 00:08:49;;;;;;;0.77;0.77;;;;;;;30.65;32.44;94680.47;5035574;28;20215;-63
2022/08/20 00:11:20;;;;;;;0.50;0.50;;;;;;;30.75;32.80;94702.09;5037737;28;20204;-64
2022/08/20 00:13:54;;;;;;;1.13;1.07;;;;;;;30.75;32.79;94691.25;5061008;28;20306;-62
2022/08/20 00:16:23;;;;;;;0.70;0.70;;;;;;;31.01;32.42;94689.31;5045798;28;20211;-64
2022/08/20 00:18:50;;;;;;;3.10;1.43;;;;;;;30.97;32.53;94688.59;5054334;28;20204;-64
2022/08/20 00:21:19;;;;;;;0.50;0.50;;;;;;;30.99;32.56;94683.53;5068780;28;20294;-62
2022/08/20 00:23:49;;;;;;;0.70;0.70;;;;;;;30.97;32.43;94685.88;5041760;28;20197;-63
2022/08/20 00:26:17;;;;;;;0.60;0.60;;;;;;;30.96;32.25;94689.72;5056340;28;20227;-62
2022/08/20 00:28:44;;;;;;;0.37;0.37;;;;;;;30.93;32.50;94685.09;5053011;28;20238;-63
2022/08/20 00:31:16;;;;;;;0.97;0.83;;;;;;;30.85;32.92;94685.13;5054253;28;20936;-63
2022/08/20 00:33:43;;;;;;;1.57;1.33;;;;;;;30.89;32.54;94680.44;5045438;28;20201;-63
2022/08/20 00:36:11;;;;;;;2.07;1.17;;;;;;;30.81;32.66;94670.81;5031279;28;20189;-63
2022/08/20 00:38:41;;;;;;;0.50;0.50;;;;;;;30.69;32.91;94686.66;5038224;28;20220;-63
2022/08/20 00:41:11;;;;;;;1.07;0.80;;;;;;;30.53;33.03;94678.91;5027892;28;20193;-63
2022/08/20 00:43:42;;;;;;;0.80;0.80;;;;;;;30.71;33.18;94678.91;5046681;28;20204;-63
2022/08/20 00:46:14;;;;;;;0.80;0.63;;;;;;;30.84;32.58;94690.88;5057613;28;20223;-62
2022/08/20 00:48:43;;;;;;;0.47;0.47;;;;;;;30.70;32.98;94675.44;5063272;28;20199;-62
2022/08/20 00:51:17;;;;;;;0.83;0.83;;;;;;;30.79;32.75;94683.94;5038539;28;20197;-63
2022/08/20 00:53:44;;;;;;;2.20;1.00;;;;;;;30.74;32.70;94673.50;5064748;28;20201;-64
2022/08/20 00:56:11;;;;;;;0.93;0.83;;;;;;;30.28;33.66;94678.13;5041479;28;20193;-64
2022/08/20 00:58:41;;;;;;;12.50;1.07;;;;;;;30.54;33.20;94677.78;5064535;28;20609;-63
2022/08/20 01:01:08;;;;;;;0.63;0.63;;;;;;;30.74;32.90;94670.78;5072008;28;20196;-64
2022/08/20 01:03:35;;;;;;;0.50;0.50;;;;;;;30.38;33.05;94666.53;5071866;28;20239;-62
2022/08/20 01:06:03;;;;;;;0.60;0.60;;;;;;;30.21;33.62;94667.28;5056103;28;20609;-63
2022/08/20 01:08:30;;;;;;;0.77;0.77;;;;;;;30.61;33.21;94664.25;5059492;28;20620;-64
2022/08/20 01:11:14;;;;;;;0.53;0.53;;;;;;;30.55;33.28;94665.78;5051576;28;20200;-63
2022/08/20 01:13:44;;;;;;;0.50;0.50;;;;;;;30.52;33.22;94655.75;5065297;28;20196;-64
2022/08/20 01:16:17;;;;;;;0.70;0.70;;;;;;;30.59;33.13;94655.75;5044459;28;20193;-63
2022/08/20 01:18:47;;;;;;;0.50;0.50;;;;;;;30.61;32.89;94648.00;5059384;28;20651;-64
2022/08/20 01:21:20;;;;;;;0.47;0.47;;;;;;;30.67;33.24;94646.47;5058310;28;20204;-63
2022/08/20 01:24:05;;;;;;;0.77;0.77;;;;;;;30.54;33.48;94653.44;5071581;28;20261;-64
2022/08/20 01:26:38;;;;;;;1.53;1.13;;;;;;;30.52;33.22;94650.34;5047925;28;20686;-63
2022/08/20 01:29:13;;;;;;;0.80;0.80;;;;;;;30.44;33.48;94648.00;5055348;28;20200;-62
2022/08/20 01:31:41;;;;;;;0.53;0.53;;;;;;;30.46;33.42;94646.47;5059969;28;20241;-63
2022/08/20 01:34:14;;;;;;;0.67;0.67;;;;;;;30.03;33.95;94654.91;5042095;28;20225;-63
2022/08/20 01:36:53;;;;;;;0.50;0.50;;;;;;;30.00;34.06;94653.75;5059049;28;20286;-62
2022/08/20 01:39:29;;;;;;;5.43;1.00;;;;;;;30.42;33.27;94643.00;5068999;28;20226;-64
2022/08/20 01:42:04;;;;;;;0.37;0.37;;;;;;;30.40;33.45;94653.41;5050478;28;20662;-62
2022/08/20 01:44:32;;;;;;;1.63;1.27;;;;;;;30.28;33.77;94651.09;5067176;28;20203;-63
2022/08/20 01:47:08;;;;;;;0.50;0.50;;;;;;;30.24;33.79;94655.69;5053338;28;20205;-63
2022/08/20 01:49:42;;;;;;;0.90;0.90;;;;;;;30.29;33.65;94649.94;5045467;28;20204;-64
2022/08/20 01:52:16;;;;;;;0.73;0.73;;;;;;;30.18;33.91;94646.47;5048099;28;20574;-63
2022/08/20 01:54:44;;;;;;;1.70;1.60;;;;;;;29.71;34.56;94641.34;5042358;28;20725;-63
2022/08/20 01:57:15;;;;;;;0.97;0.60;;;;;;;29.71;34.69;94641.34;5041343;28;20639;-63
2022/08/20 01:59:43;;;;;;;0.50;0.50;;;;;;;29.11;35.67;94633.00;5070763;28;20204;-63
2022/08/20 02:02:11;;;;;;;0.70;0.70;;;;;;;29.71;34.57;94627.84;5035122;28;20276;-62
2022/08/20 02:04:39;;;;;;;0.90;0.83;;;;;;;29.76;34.52;94624.78;5050457;28;20211;-64
2022/08/20 02:07:13;;;;;;;1.10;1.00;;;;;;;29.75;34.48;94636.72;5070018;28;20206;-64
2022/08/20 02:09:40;;;;;;;1.53;1.43;;;;;;;29.27;35.06;94625.34;5060889;28;20236;-63
2022/08/20 02:12:09;;;;;;;0.90;0.90;;;;;;;29.45;35.00;94628.13;5062221;28;20237;-63
2022/08/20 02:14:44;;;;;;;8.30;1.63;;;;;;;29.82;34.55;94625.94;5046930;28;20219;-63
2022/08/20 02:17:12;;;;;;;1.03;0.80;;;;;;;29.76;34.61;94630.19;5066489;28;20686;-63
2022/08/20 02:19:44;;;;;;;1.90;0.90;;;;;;;30.00;34.22;94640.22;5030047;28;20194;-64
2022/08/20 02:22:22;;;;;;;0.80;0.80;;;;;;;30.01;34.38;94630.97;5030819;28;20215;-64
2022/08/20 02:24:50;;;;;;;0.30;0.30;;;;;;;29.73;34.31;94610.09;5053704;28;20612;-63
2022/08/20 02:27:17;;;;;;;1.03;1.03;;;;;;;29.78;34.77;94627.88;5058609;28;20815;-62
2022/08/20 02:29:45;;;;;;;0.50;0.50;;;;;;;29.88;34.62;94627.09;5056584;28;20216;-63
2022/08/20 02:32:12;;;;;;;0.83;0.60;;;;;;;29.85;34.69;94627.88;5043275;28;20252;-63
2022/08/20 02:35:02;;;;;;;0.67;0.67;;;;;;;29.84;34.63;94610.13;5037918;28;20329;-64
2022/08/20 02:37:29;;;;;;;0.97;0.97;;;;;;;29.80;34.71;94625.53;5064044;28;20709;-62
2022/08/20 02:39:56;;;;;;;0.50;0.50;;;;;;;29.83;34.98;94622.09;5069926;28;20196;-63
2022/08/20 02:42:22;;;;;;;0.60;0.60;;;;;;;29.69;35.09;94624.75;5056722;28;20322;-62
2022/08/20 02:44:50;;;;;;;0.37;0.37;;;;;;;29.60;35.37;94625.09;5035540;28;20232;-61
2022/08/20 02:47:17;;;;;;;0.60;0.60;;;;;;;29.68;35.18;94626.66;5049907;28;20620;-63
2022/08/20 02:49:44;;;;;;;0.93;0.93;;;;;;;29.68;35.37;94623.19;5062111;28;20219;-65
2022/08/20 02:52:11;;;;;;;0.93;0.93;;;;;;;29.61;35.52;94628.56;5038501;28;20261;-64
2022/08/20 02:54:37;;;;;;;1.40;1.30;;;;;;;29.63;35.59;94631.66;5064293;28;20288;-62
2022/08/20 02:57:04;;;;;;;0.77;0.77;;;;;;;29.67;35.52;94637.84;5041340;28;20195;-62
2022/08/20 02:59:32;;;;;;;4.50;1.03;;;;;;;29.54;35.78;94639.34;5059568;28;20196;-63
2022/08/20 03:01:59;;;;;;;1.13;1.03;;;;;;;29.54;35.91;94639.34;5063665;28;20314;-62
2022/08/20 03:04:28;;;;;;;0.83;0.83;;;;;;;29.61;35.64;94639.38;5049453;28;20655;-62
2022/08/20 03:06:56;;;;;;;0.57;0.57;;;;;;;29.42;36.31;94639.69;5063531;28;20230;-63
2022/08/20 03:09:23;;;;;;;2.03;0.93;;;;;;;29.45;36.11;94649.75;5062415;28;20254;-63
2022/08/20 03:11:50;;;;;;;1.27;1.20;;;;;;;29.45;36.18;94641.63;5062324;28;20295;-63
2022/08/20 03:14:17;;;;;;;0.47;0.47;;;;;;;29.59;35.69;94638.97;5063203;28;20195;-62
2022/08/20 03:16:43;;;;;;;0.60;0.60;;;;;;;29.46;36.27;94637.78;5060129;28;20199;-63
2022/08/20 03:19:12;;;;;;;0.83;0.77;;;;;;;29.14;36.64;94642.28;5064734;28;20192;-63
2022/08/20 03:21:39;;;;;;;0.93;0.90;;;;;;;29.30;36.41;94638.13;5059365;28;20208;-64
2022/08/20 03:24:06;;;;;;;1.33;0.67;;;;;;;29.45;36.05;94637.00;5038602;28;20957;-63
2022/08/20 03:26:32;;;;;;;0.73;0.73;;;;;;;29.52;35.89;94647.84;5049098;28;20625;-63
2022/08/20 03:29:00;;;;;;;1.03;1.00;;;;;;;29.51;36.05;94645.50;5062836;28;20642;-64
2022/08/20 03:31:26;;;;;;;1.03;1.03;;;;;;;29.54;36.03;94639.34;5049296;28;20197;-62
2022/08/20 03:33:53;;;;;;;0.70;0.70;;;;;;;29.51;36.12;94645.50;5061940;28;20294;-63
2022/08/20 03:36:22;;;;;;;1.13;1.13;;;;;;;29.62;36.02;94641.69;5069046;28;20203;-63
2022/08/20 03:39:00;;;;;;;1.40;1.27;;;;;;;29.64;35.83;94644.00;5056005;28;20238;-63
2022/08/20 03:41:27;;;;;;;4.07;0.93;;;;;;;29.21;36.74;94636.91;5043580;28;20707;-63
2022/08/20 03:43:54;;;;;;;0.93;0.93;;;;;;;29.27;36.47;94641.56;5040754;28;20216;-65
2022/08/20 03:46:22;;;;;;;0.70;0.70;;;;;;;28.43;37.54;94652.56;5045485;28;20220;-62
2022/08/20 03:48:54;;;;;;;0.77;0.77;;;;;;;28.80;37.23;94650.53;5048941;28;20196;-62
2022/08/20 03:51:31;;;;;;;0.70;0.70;;;;;;;29.07;36.90;94653.00;5040107;28;20205;-63
2022/08/20 03:54:17;;;;;;;0.57;0.43;;;;;;;29.27;36.40;94652.34;5045240;28;20201;-64
2022/08/20 03:56:44;;;;;;;0.60;0.60;;;;;;;29.26;36.36;94645.41;5037163;28;20240;-64
2022/08/20 03:59:11;;;;;;;2.53;1.63;;;;;;;29.34;36.33;94651.63;5068493;28;20196;-63
2022/08/20 04:01:38;;;;;;;0.50;0.50;;;;;;;29.39;36.32;94648.53;5068678;28;20299;-64
2022/08/20 04:04:13;;;;;;;2.73;1.30;;;;;;;29.16;36.84;94656.16;5040945;28;20228;-63
2022/08/20 04:06:41;;;;;;;2.03;1.80;;;;;;;29.35;36.56;94658.56;5042748;28;20201;-65
2022/08/20 04:09:09;;;;;;;0.60;0.60;;;;;;;29.23;36.65;94656.19;5066169;28;20286;-64
2022/08/20 04:11:41;;;;;;;1.03;0.93;;;;;;;29.23;36.50;94645.41;5045583;28;20608;-64
2022/08/20 04:14:10;;;;;;;0.20;0.20;;;;;;;29.35;36.63;94653.16;5060899;28;20199;-62
2022/08/20 04:16:42;;;;;;;0.40;0.40;;;;;;;29.29;36.75;94649.28;5060200;28;20269;-63
2022/08/20 04:19:11;;;;;;;0.83;0.83;;;;;;;29.33;36.59;94658.16;5041166;28;20241;-63
2022/08/20 04:21:38;;;;;;;0.90;0.90;;;;;;;29.25;36.91;94659.28;5052259;28;20203;-62
2022/08/20 04:24:05;;;;;;;0.50;0.50;;;;;;;29.20;36.93;94655.03;5064486;28;20208;-63
2022/08/20 04:26:35;;;;;;;1.50;1.07;;;;;;;29.21;37.20;94658.50;5072216;28;20683;-63
2022/08/20 04:29:02;;;;;;;0.97;0.97;;;;;;;29.10;37.41;94649.53;5071460;28;20203;-63
2022/08/20 04:31:32;;;;;;;0.90;0.90;;;;;;;29.17;37.46;94652.31;5059605;28;20187;-66
2022/08/20 04:34:06;;;;;;;2.13;1.27;;;;;;;29.26;37.13;94655.44;5044600;28;20304;-65
2022/08/20 04:36:34;;;;;;;0.83;0.60;;;;;;;29.20;37.18;94656.94;5032304;28;20220;-64
2022/08/20 04:39:01;;;;;;;0.80;0.80;;;;;;;29.22;37.20;94660.81;5057300;28;20672;-63
2022/08/20 04:41:28;;;;;;;0.70;0.70;;;;;;;29.32;37.17;94659.31;5052473;28;20741;-64
2022/08/20 04:43:55;;;;;;;1.13;1.07;;;;;;;29.36;36.97;94660.88;5063092;28;20211;-64
2022/08/20 04:46:27;;;;;;;0.70;0.70;;;;;;;29.49;37.08;94659.38;5071716;28;20230;-63
2022/08/20 04:48:56;;;;;;;1.13;1.03;;;;;;;29.64;36.56;94660.19;5071267;28;20261;-63
2022/08/20 04:51:23;;;;;;;1.43;1.17;;;;;;;29.46;36.80;94662.06;5042099;28;20628;-63
2022/08/20 04:53:52;;;;;;;0.40;0.40;;;;;;;29.22;37.42;94663.50;5071760;28;20199;-63
2022/08/20 04:56:28;;;;;;;1.90;1.43;;;;;;;29.41;37.06;94673.25;5048579;28;20313;-64
2022/08/20 04:58:58;;;;;;;3.30;1.57;;;;;;;29.27;37.06;94667.78;5054983;28;20203;-63
2022/08/20 05:01:26;;;;;;;0.60;0.60;;;;;;;29.65;36.59;94662.50;5049054;28;20254;-63
2022/08/20 05:03:54;;;;;;;1.70;1.30;;;;;;;29.78;36.57;94660.28;5038932;28;20961;-63
2022/08/20 05:06:24;;;;;;;0.60;0.60;;;;;;;29.63;36.48;94669.47;5071588;28;20253;-62
2022/08/20 05:08:52;;;;;;;1.37;0.63;;;;;;;29.37;37.36;94662.44;5071336;28;20204;-63
2022/08/20 05:11:20;;;;;;;0.77;0.77;;;;;;;28.98;38.08;94666.06;5071595;28;20293;-64
2022/08/20 05:14:01;;;;;;;0.97;0.97;;;;;;;28.58;38.63;94675.03;5039995;28;20659;-63
2022/08/20 05:16:28;;;;;;;0.60;0.60;;;;;;;29.64;37.23;94669.09;5061086;28;20246;-63
2022/08/20 05:18:55;;;;;;;1.70;1.60;;;;;;;29.92;37.30;94671.13;5056848;28;20212;-62
2022/08/20 05:21:22;;;;;;;0.33;0.33;;;;;;;29.63;37.15;94661.38;5071707;28;20204;-63
2022/08/20 05:23:48;;;;;;;0.50;0.50;;;;;;;29.13;39.13;94663.09;5072015;28;20437;-63
2022/08/20 05:26:18;;;;;;;0.80;0.80;;;;;;;28.87;38.59;94666.75;5038640;28;20632;-63
2022/08/20 05:28:47;;;;;;;0.83;0.83;;;;;;;29.21;38.11;94663.91;5038652;28;20212;-63
2022/08/20 05:31:28;;;;;;;0.83;0.83;;;;;;;29.68;37.69;94659.06;5044477;28;20657;-63
2022/08/20 05:34:02;;;;;;;0.90;0.87;;;;;;;29.84;37.47;94658.72;5044155;28;20200;-63
2022/08/20 05:36:29;;;;;;;1.53;1.43;;;;;;;29.91;37.25;94650.63;5057950;28;20251;-63
2022/08/20 05:38:56;;;;;;;0.67;0.67;;;;;;;29.97;36.90;94651.81;5030967;28;20197;-63
2022/08/20 05:41:23;;;;;;;0.77;0.77;;;;;;;30.09;36.79;94647.97;5030498;28;20241;-64
2022/08/20 05:43:59;;;;;;;0.60;0.60;;;;;;;29.82;38.00;94650.25;5059841;28;20585;-64
2022/08/20 05:46:26;;;;;;;1.07;1.07;;;;;;;30.29;36.33;94652.63;5056094;28;20193;-63
2022/08/20 05:48:53;;;;;;;0.63;0.63;;;;;;;30.36;36.64;94652.66;5042764;28;20208;-62
2022/08/20 05:51:25;;;;;;;0.63;0.63;;;;;;;30.29;36.71;94647.22;5033760;28;20284;-63
2022/08/20 05:53:51;;;;;;;0.67;0.67;;;;;;;30.42;36.41;94640.28;5039034;28;20663;-63
2022/08/20 05:56:18;;;;;;;0.70;0.70;;;;;;;30.32;37.08;94649.19;5033725;28;20271;-62
2022/08/20 05:58:52;;;;;;;0.50;0.50;;;;;;;30.36;36.95;94647.25;5032338;28;20255;-63
2022/08/20 06:01:19;;;;;;;3.77;2.07;;;;;;;30.67;36.49;94645.69;5042886;28;20192;-64
2022/08/20 06:06:33;;;;;;;1.20;1.10;;;;;;;30.94;36.64;94637.94;5033460;28;20204;-64
2022/08/20 06:09:15;;;;;;;0.40;0.40;;;;;;;30.84;36.66;94637.56;5050681;28;20204;-66
2022/08/20 06:11:42;;;;;;;0.70;0.70;;;;;;;30.82;36.90;94633.72;5054657;28;20188;-66
2022/08/20 06:14:08;;;;;;;1.23;1.10;;;;;;;30.77;36.54;94637.56;5032543;28;20726;-66
2022/08/20 06:16:35;;;;;;;0.83;0.83;;;;;;;31.07;36.46;94639.06;5037645;28;20653;-64
2022/08/20 06:19:04;;;;;;;0.97;0.97;;;;;;;31.07;35.85;94641.75;5023171;28;20193;-64
2022/08/20 06:21:37;;;;;;;6.60;2.13;;;;;;;31.05;36.22;94638.66;5034435;28;20731;-63
2022/08/20 06:24:05;;;;;;;1.10;0.83;;;;;;;31.29;35.70;94638.59;5029547;28;20347;-63
2022/08/20 06:26:33;;;;;;;0.83;0.83;;;;;;;31.34;36.03;94651.72;5041694;28;20228;-64
2022/08/20 06:29:02;;;;;;;2.50;1.33;;;;;;;31.48;35.48;94646.28;5052776;28;20204;-64
2022/08/20 06:31:28;;;;;;;0.90;0.87;;;;;;;31.39;35.49;94645.16;5040073;28;20580;-64
2022/08/20 06:33:56;;;;;;;2.73;2.47;;;;;;;31.83;35.46;94645.31;5039905;28;20259;-62
2022/08/20 06:36:23;;;;;;;4.77;2.57;;;;;;;31.60;35.64;94645.84;5039820;28;20265;-62
2022/08/20 06:38:50;;;;;;;2.43;2.23;;;;;;;31.50;35.70;94638.53;5044701;28;20196;-62
2022/08/20 06:41:17;;;;;;;0.83;0.83;;;;;;;31.27;36.51;94640.16;5060043;28;20260;-63
2022/08/20 06:43:45;;;;;;;0.87;0.87;;;;;;;31.36;36.70;94643.25;5045549;28;20203;-66
2022/08/20 06:46:13;;;;;;;2.67;2.47;;;;;;;31.71;36.53;94626.81;5050252;28;20204;-62
2022/08/20 06:48:40;;;;;;;3.53;3.23;;;;;;;32.15;35.67;94629.66;5040980;28;21223;-61
2022/08/20 06:51:08;;;;;;;2.00;1.80;;;;;;;32.10;35.50;94623.91;5046092;28;20197;-62
2022/08/20 06:53:35;;;;;;;1.47;1.37;;;;;;;31.99;36.77;94626.66;5025816;28;20196;-63
2022/08/20 06:56:03;;;;;;;0.40;0.40;;;;;;;31.94;36.62;94629.78;5040144;28;20290;-64
2022/08/20 06:58:31;;;;;;;1.13;1.07;;;;;;;31.91;36.65;94617.06;5053900;28;20253;-60
2022/08/20 07:01:09;;;;;;;11.10;8.77;;;;;;;31.93;36.20;94622.06;5039684;28;20200;-62
2022/08/20 07:03:39;;;;;;;4.40;4.00;;;;;;;32.23;36.11;94624.94;5053744;28;20300;-62
2022/08/20 07:06:24;;;;;;;3.93;2.87;;;;;;;32.43;34.80;94618.59;5039736;28;20200;-61
2022/08/20 07:08:52;;;;;;;3.53;1.90;;;;;;;32.14;35.44;94606.41;5042605;28;20196;-63
2022/08/20 07:11:38;;;;;;;1.00;0.93;;;;;;;32.52;34.68;94607.28;5050571;28;20200;-62
2022/08/20 07:14:05;;;;;;;0.87;0.87;;;;;;;32.12;35.23;94592.50;5039215;28;20192;-62
2022/08/20 07:16:32;;;;;;;1.13;1.00;;;;;;;32.28;35.04;94611.72;5039356;28;20212;-63
2022/08/20 07:18:59;;;;;;;0.90;0.90;;;;;;;32.17;35.21;94608.31;5055612;28;20231;-63
2022/08/20 07:21:26;;;;;;;1.60;1.17;;;;;;;32.67;33.96;94600.56;5051474;28;20598;-61
2022/08/20 07:23:52;;;;;;;2.37;2.17;;;;;;;32.19;35.62;94602.53;5039875;28;20193;-61
2022/08/20 07:26:19;;;;;;;4.67;4.07;;;;;;;32.87;34.49;94601.50;5052814;28;20254;-63
2022/08/20 07:28:46;;;;;;;3.03;1.83;;;;;;;33.19;33.92;94596.53;5039910;28;20643;-62
2022/08/20 07:34:01;;;;;;;4.73;2.00;;;;;;;32.85;34.02;94597.69;5039005;28;20435;-61
2022/08/20 07:36:29;;;;;;;0.77;0.77;;;;;;;32.54;34.55;94594.88;5038711;28;20208;-60
2022/08/20 07:38:56;;;;;;;1.10;1.10;;;;;;;32.72;33.49;94590.03;5039345;28;20218;-64
2022/08/20 07:41:22;;;;;;;1.37;1.07;;;;;;;32.94;33.75;94601.47;5057578;28;20200;-61
2022/08/20 07:43:49;;;;;;;0.87;0.87;;;;;;;33.08;33.33;94603.25;5047986;28;20200;-62
2022/08/20 07:46:18;;;;;;;1.47;1.20;;;;;;;32.87;33.30;94606.16;5052785;28;20192;-62
2022/08/20 07:48:48;;;;;;;0.83;0.77;;;;;;;32.51;34.01;94598.41;5048708;28;20238;-61
2022/08/20 07:51:19;;;;;;;0.70;0.70;;;;;;;32.90;32.94;94597.25;5044310;28;20629;-63
2022/08/20 07:53:48;;;;;;;1.70;1.20;;;;;;;33.33;32.99;94599.06;5039436;28;20207;-63
2022/08/20 07:56:22;;;;;;;0.87;0.87;;;;;;;33.40;33.00;94596.28;5046105;28;20208;-66
2022/08/20 07:58:54;;;;;;;3.73;2.10;;;;;;;32.97;33.15;94589.81;5056640;28;20200;-64
2022/08/20 08:01:31;;;;;;;5.77;5.23;;;;;;;33.42;32.58;94595.84;5043129;28;20204;-64
2022/08/20 08:03:59;;;;;;;0.87;0.70;;;;;;;33.61;32.36;94592.53;5047715;28;20287;-63
2022/08/20 08:06:28;;;;;;;1.23;1.13;;;;;;;33.65;32.14;94585.88;5052675;28;20204;-63
2022/08/20 08:09:06;;;;;;;0.93;0.90;;;;;;;33.73;32.46;94594.69;5043398;28;20204;-61
2022/08/20 08:11:38;;;;;;;1.57;1.20;;;;;;;33.97;32.24;94588.16;5043712;28;20228;-61
2022/08/20 08:14:08;;;;;;;0.60;0.60;;;;;;;33.73;33.42;94603.63;5047867;28;20234;-63
2022/08/20 08:16:36;;;;;;;4.37;1.40;;;;;;;34.21;31.94;94592.44;5037825;28;20278;-63
2022/08/20 08:19:06;;;;;;;1.70;1.60;;;;;;;34.27;32.00;94596.22;5050557;28;20187;-65
2022/08/20 08:21:33;;;;;;;1.30;1.20;;;;;;;33.34;32.56;94592.47;5050698;28;20240;-68
2022/08/20 08:24:01;;;;;;;1.03;0.80;;;;;;;33.55;32.62;94588.72;5063013;28;20633;-61
2022/08/20 08:26:28;;;;;;;0.83;0.83;;;;;;;34.16;32.09;94584.72;5062947;28;20206;-62
2022/08/20 08:28:56;;;;;;;1.17;1.03;;;;;;;34.15;32.24;94583.22;5035470;28;20727;-62
2022/08/20 08:31:24;;;;;;;0.90;0.90;;;;;;;34.25;31.41;94582.25;5049097;28;20213;-61
2022/08/20 08:33:51;;;;;;;0.60;0.60;;;;;;;33.64;31.73;94586.28;5049332;28;20197;-62
2022/08/20 08:36:18;;;;;;;0.83;0.83;;;;;;;34.25;31.29;94582.25;5048475;28;20657;-62
2022/08/20 08:38:45;;;;;;;1.37;1.27;;;;;;;34.10;31.33;94580.19;5043084;28;20638;-61
2022/08/20 08:41:30;;;;;;;0.80;0.80;;;;;;;34.45;31.58;94580.41;5048930;28;21072;-62
2022/08/20 08:44:12;;;;;;;0.97;0.97;;;;;;;34.40;31.01;94566.47;5049018;28;20204;-61
2022/08/20 08:46:47;;;;;;;1.50;1.40;;;;;;;34.69;31.75;94557.41;5054504;28;20232;-62
2022/08/20 08:49:19;;;;;;;2.43;2.20;;;;;;;34.51;31.11;94556.19;5058115;28;20303;-63
2022/08/20 08:52:03;;;;;;;2.73;1.60;;;;;;;34.84;31.03;94547.03;5048224;28;20218;-62
2022/08/20 08:54:34;;;;;;;0.73;0.73;;;;;;;34.96;30.44;94559.28;5062588;28;20249;-61
2022/08/20 08:57:01;;;;;;;1.50;1.40;;;;;;;35.28;30.74;94553.97;5042749;28;20226;-60
2022/08/20 08:59:30;;;;;;;0.90;0.70;;;;;;;35.16;30.29;94551.88;5052784;28;20725;-63
2022/08/20 09:02:24;;;;;;;2.57;1.80;;;;;;;35.28;29.44;94543.06;5046035;28;20188;-61
2022/08/20 09:04:55;;;;;;;1.27;1.03;;;;;;;35.28;29.80;94529.44;5061643;28;20302;-62
2022/08/20 09:07:25;;;;;;;16.50;1.60;;;;;;;35.04;30.43;94533.44;5043069;28;20200;-64
2022/08/20 09:09:52;;;;;;;0.70;0.70;;;;;;;35.57;29.16;94528.44;5041414;28;20188;-62
2022/08/20 09:12:22;;;;;;;1.03;0.93;;;;;;;35.53;28.80;94532.41;5055492;28;20208;-63
2022/08/20 09:14:50;;;;;;;0.80;0.80;;;;;;;35.23;29.10;94532.66;5041714;28;20189;-64
2022/08/20 09:17:20;;;;;;;1.07;1.07;;;;;;;35.62;29.45;94529.91;5043538;28;20228;-64
2022/08/20 09:19:48;;;;;;;1.83;1.37;;;;;;;35.58;28.13;94534.66;5061681;28;20179;-61
2022/08/20 09:22:20;;;;;;;1.23;1.13;;;;;;;35.97;28.25;94540.00;5062271;28;20208;-63
2022/08/20 09:24:49;;;;;;;1.20;1.03;;;;;;;36.47;28.71;94532.16;5053648;28;20589;-62
2022/08/20 09:27:16;;;;;;;0.80;0.80;;;;;;;36.12;28.70;94533.00;5041928;28;20605;-60
2022/08/20 09:29:44;;;;;;;1.93;0.90;;;;;;;36.30;28.00;94533.34;5048048;28;20192;-63
2022/08/20 09:32:16;;;;;;;0.97;0.97;;;;;;;36.57;27.97;94533.81;5061886;28;20207;-66
2022/08/20 09:34:46;;;;;;;0.90;0.70;;;;;;;36.11;29.10;94523.31;5061164;28;20184;-63
2022/08/20 09:37:14;;;;;;;1.77;1.67;;;;;;;36.68;27.51;94519.88;5061269;28;20236;-63
2022/08/20 09:39:41;;;;;;;3.17;1.43;;;;;;;36.23;28.01;94519.88;5061451;28;20188;-62
2022/08/20 09:42:14;;;;;;;1.13;1.03;;;;;;;35.97;27.67;94520.16;5061153;28;20231;-62
2022/08/20 09:44:41;;;;;;;1.47;1.20;;;;;;;36.04;27.73;94523.47;5061095;28;20192;-62
2022/08/20 09:47:09;;;;;;;0.90;0.90;;;;;;;36.72;27.93;94517.06;5041406;28;20676;-64
2022/08/20 09:49:37;;;;;;;2.53;1.30;;;;;;;35.88;27.07;94498.88;5052086;28;20199;-64
2022/08/20 09:52:07;;;;;;;1.70;1.60;;;;;;;36.38;27.47;94514.84;5041458;28;20642;-62
2022/08/20 09:54:36;;;;;;;1.03;0.93;;;;;;;36.64;27.42;94511.78;5040656;28;20498;-63
2022/08/20 09:57:06;;;;;;;0.57;0.57;;;;;;;36.93;27.54;94505.59;5027124;28;20220;-71
2022/08/20 09:59:34;;;;;;;1.10;1.00;;;;;;;36.58;28.26;94501.84;5040672;28;20699;-64
2022/08/20 10:02:01;;;;;;;1.67;1.57;;;;;;;37.08;27.08;94509.47;5043344;28;20192;-63
2022/08/20 10:04:28;;;;;;;9.33;6.97;;;;;;;37.31;28.07;94514.66;5051754;28;20679;-70
2022/08/20 10:06:55;;;;;;;1.30;1.23;;;;;;;37.34;26.61;94519.25;5054658;28;20199;-63
2022/08/20 10:09:23;;;;;;;1.37;1.27;;;;;;;37.32;27.03;94516.19;5029122;28;20227;-65
2022/08/20 10:11:49;;;;;;;0.80;0.80;;;;;;;37.34;27.60;94511.03;5020328;28;20225;-65
2022/08/20 10:14:16;;;;;;;3.57;1.23;;;;;;;37.55;25.43;94507.69;5020031;28;20197;-64
2022/08/20 10:16:43;;;;;;;0.70;0.70;;;;;;;37.64;26.79;94513.25;5018326;28;20217;-66
2022/08/20 10:19:10;;;;;;;0.87;0.87;;;;;;;37.59;26.71;94508.34;5019685;28;20293;-64
2022/08/20 10:21:37;;;;;;;1.23;1.13;;;;;;;37.78;26.12;94488.22;5020468;28;20197;-64
2022/08/20 10:24:05;;;;;;;0.83;0.83;;;;;;;37.53;26.22;94510.09;5020443;28;20671;-63
2022/08/20 10:26:32;;;;;;;0.70;0.70;;;;;;;37.67;25.78;94498.72;5020414;28;20204;-64
2022/08/20 10:28:59;;;;;;;0.77;0.77;;;;;;;37.78;25.74;94499.16;5023883;28;20743;-65
2022/08/20 10:31:26;;;;;;;3.77;1.47;;;;;;;38.28;25.40;94492.88;5049554;28;20196;-64
2022/08/20 10:33:52;;;;;;;1.50;1.40;;;;;;;38.15;24.82;94494.84;5046357;28;20299;-64
2022/08/20 10:36:20;;;;;;;1.10;1.10;;;;;;;38.06;24.62;94489.28;5052698;28;20196;-65
2022/08/20 10:38:47;;;;;;;0.93;0.93;;;;;;;38.06;26.30;94487.31;5054466;28;20204;-65
2022/08/20 10:41:14;;;;;;;1.67;1.10;;;;;;;38.51;24.77;94485.03;5032821;28;20204;-66
2022/08/20 10:43:41;;;;;;;4.37;1.13;;;;;;;38.16;24.24;94483.47;5060452;28;20220;-65
2022/08/20 10:46:08;;;;;;;0.93;0.93;;;;;;;38.71;24.25;94481.22;5027835;28;20212;-65
2022/08/20 10:48:35;;;;;;;0.87;0.87;;;;;;;39.07;25.00;94478.78;5029456;28;20205;-64
2022/08/20 10:51:02;;;;;;;1.40;1.20;;;;;;;38.92;24.77;94475.78;5023670;28;20267;-64
2022/08/20 10:53:29;;;;;;;1.50;0.77;;;;;;;38.79;24.50;94471.56;5044979;28;20644;-63
2022/08/20 10:55:57;;;;;;;2.07;0.93;;;;;;;38.72;23.10;94480.03;5037142;28;20204;-62
2022/08/20 10:58:25;;;;;;;4.60;1.97;;;;;;;39.10;24.08;94470.44;5049390;28;20319;-63
2022/08/20 11:01:03;;;;;;;1.60;1.50;;;;;;;39.05;24.38;94467.47;5042622;28;20224;-62
2022/08/20 11:03:30;;;;;;;0.70;0.70;;;;;;;38.93;23.89;94465.56;5033661;28;20989;-68
2022/08/20 11:05:57;;;;;;;1.63;1.17;;;;;;;38.66;24.23;94468.88;5033866;28;20721;-65
2022/08/20 11:08:24;;;;;;;1.30;1.20;;;;;;;38.78;24.35;94465.31;5046576;28;20662;-63
2022/08/20 11:11:00;;;;;;;0.80;0.80;;;;;;;38.18;23.68;94472.88;5033169;28;20696;-64
2022/08/20 11:13:27;;;;;;;1.13;1.00;;;;;;;38.26;24.72;94474.16;5034713;28;20201;-61
2022/08/20 11:15:54;;;;;;;1.03;0.90;;;;;;;38.38;24.53;94465.13;5024648;28;20284;-64
2022/08/20 11:18:21;;;;;;;0.80;0.80;;;;;;;37.93;24.62;94456.50;5028785;28;20410;-65
2022/08/20 11:20:48;;;;;;;1.80;0.77;;;;;;;38.34;24.37;94464.50;5039888;28;20213;-66
2022/08/20 11:23:15;;;;;;;1.63;1.17;;;;;;;37.56;24.86;94460.75;5059905;28;20298;-63
2022/08/20 11:25:41;;;;;;;1.40;1.30;;;;;;;38.07;24.73;94456.00;5029908;28;20193;-64
2022/08/20 11:28:09;;;;;;;2.13;1.23;;;;;;;38.24;24.08;94449.22;5038916;28;20663;-64
2022/08/20 11:30:36;;;;;;;0.90;0.90;;;;;;;38.31;25.16;94438.00;5039281;28;20214;-63
2022/08/20 11:33:04;;;;;;;0.73;0.73;;;;;;;38.25;24.73;94434.31;5039676;28;20204;-64
2022/08/20 11:35:33;;;;;;;1.83;1.43;;;;;;;38.28;24.47;94427.97;5051603;28;20200;-63
2022/08/20 11:38:15;;;;;;;0.60;0.60;;;;;;;38.37;24.74;94419.06;5026131;28;20222;-66
2022/08/20 11:40:42;;;;;;;1.90;1.13;;;;;;;38.61;25.02;94419.38;5039506;28;20291;-65
2022/08/20 11:43:10;;;;;;;0.93;0.90;;;;;;;37.92;24.83;94424.84;5030336;28;20343;-61
2022/08/20 11:45:45;;;;;;;1.67;1.57;;;;;;;38.49;24.74;94405.28;5059828;28;20625;-64
2022/08/20 11:48:12;;;;;;;3.13;2.93;;;;;;;37.94;24.78;94414.22;5044733;28;20317;-66
2022/08/20 11:50:39;;;;;;;3.03;2.43;;;;;;;38.28;24.57;94408.81;5037693;28;20634;-67